createdAt,value
2022-09-10T00:00:24.998Z,43.10
2022-09-10T00:02:55.009Z,41.80
2022-09-10T00:05:24.769Z,40.80
2022-09-10T00:07:58.269Z,42.10
2022-09-10T00:10:28.009Z,42.90
2022-09-10T00:12:57.774Z,43.10
2022-09-10T00:15:27.499Z,43.00
2022-09-10T00:17:57.212Z,44.30
2022-09-10T00:20:27.977Z,43.70
2022-09-10T00:23:00.869Z,44.70
2022-09-10T00:25:33.011Z,44.80
2022-09-10T00:28:02.813Z,45.00
2022-09-10T00:30:32.715Z,46.20
2022-09-10T00:33:02.874Z,46.40
2022-09-10T00:35:35.033Z,46.80
2022-09-10T00:38:07.742Z,46.80
2022-09-10T00:40:38.412Z,46.90
2022-09-10T00:43:14.377Z,46.90
2022-09-10T00:45:45.619Z,46.90
2022-09-10T00:48:20.557Z,46.50
2022-09-10T00:50:52.708Z,45.20
2022-09-10T00:53:29.159Z,45.30
2022-09-10T00:56:04.594Z,45.40
2022-09-10T00:58:34.723Z,46.10
2022-09-10T01:01:06.379Z,46.70
2022-09-10T01:03:36.369Z,46.90
2022-09-10T01:06:06.536Z,47.60
2022-09-10T01:08:38.971Z,46.60
2022-09-10T01:11:20.457Z,46.00
2022-09-10T01:14:06.875Z,45.40
2022-09-10T01:16:45.861Z,46.40
2022-09-10T01:19:37.452Z,45.90
2022-09-10T01:22:17.855Z,45.30
2022-09-10T01:24:56.998Z,46.70
2022-09-10T01:27:47.639Z,46.30
2022-09-10T01:30:20.703Z,46.40
2022-09-10T01:33:02.122Z,46.80
2022-09-10T01:35:40.515Z,45.80
2022-09-10T01:38:15.768Z,45.00
2022-09-10T01:40:46.506Z,44.00
2022-09-10T01:43:19.151Z,45.00
2022-09-10T01:46:00.419Z,45.30
2022-09-10T01:48:50.803Z,45.00
2022-09-10T01:51:30.211Z,45.00
2022-09-10T01:54:26.847Z,45.10
2022-09-10T01:57:06.815Z,45.50
2022-09-10T01:59:43.472Z,46.40
2022-09-10T02:02:19.642Z,46.30
2022-09-10T02:04:51.534Z,45.70
2022-09-10T02:07:25.018Z,46.40
2022-09-10T02:09:56.816Z,46.80
2022-09-10T02:12:26.712Z,47.60
2022-09-10T02:15:00.518Z,47.70
2022-09-10T02:17:35.083Z,47.50
2022-09-10T02:20:05.584Z,48.20
2022-09-10T02:22:38.228Z,47.80
2022-09-10T02:25:09.931Z,48.40
2022-09-10T02:27:40.097Z,49.10
2022-09-10T02:30:16.100Z,49.10
2022-09-10T02:32:45.855Z,49.40
2022-09-10T02:35:15.849Z,51.00
2022-09-10T02:37:45.752Z,51.20
2022-09-10T02:40:15.555Z,52.20
2022-09-10T02:42:46.477Z,52.90
2022-09-10T02:45:19.279Z,53.00
2022-09-10T02:47:48.999Z,53.70
2022-09-10T02:50:18.852Z,54.10
2022-09-10T02:52:49.050Z,54.50
2022-09-10T02:55:18.918Z,54.10
2022-09-10T02:57:49.188Z,54.50
2022-09-10T03:00:22.604Z,54.40
2022-09-10T03:02:52.837Z,54.80
2022-09-10T03:05:22.652Z,55.40
2022-09-10T03:07:52.608Z,55.60
2022-09-10T03:10:22.388Z,55.90
2022-09-10T03:12:53.156Z,55.90
2022-09-10T03:15:25.549Z,57.00
2022-09-10T03:17:55.457Z,57.10
2022-09-10T03:20:25.374Z,57.10
2022-09-10T03:22:55.143Z,57.20
2022-09-10T03:25:25.114Z,57.20
2022-09-10T03:27:55.006Z,57.40
2022-09-10T03:30:27.307Z,57.50
2022-09-10T03:32:57.548Z,57.80
2022-09-10T03:35:27.776Z,57.80
2022-09-10T03:37:57.493Z,57.70
2022-09-10T03:40:29.453Z,57.90
2022-09-10T03:42:59.182Z,58.30
2022-09-10T03:45:31.813Z,58.40
2022-09-10T03:48:03.144Z,57.60
2022-09-10T03:50:33.326Z,57.90
2022-09-10T03:53:04.001Z,57.80
2022-09-10T03:55:34.220Z,57.80
2022-09-10T03:58:03.961Z,58.10
2022-09-10T04:00:36.457Z,57.90
2022-09-10T04:03:06.433Z,58.20
2022-09-10T04:05:36.259Z,57.50
2022-09-10T04:08:07.487Z,57.70
2022-09-10T04:10:37.204Z,58.20
2022-09-10T04:13:07.113Z,57.70
2022-09-10T04:15:39.930Z,58.30
2022-09-10T04:18:10.205Z,57.40
2022-09-10T04:20:40.682Z,57.90
2022-09-10T04:23:10.609Z,57.40
2022-09-10T04:25:40.484Z,58.00
2022-09-10T04:28:11.368Z,57.40
2022-09-10T04:30:43.675Z,57.40
2022-09-10T04:33:13.919Z,57.30
2022-09-10T04:35:43.689Z,57.30
2022-09-10T04:38:13.405Z,57.40
2022-09-10T04:40:43.365Z,57.30
2022-09-10T04:43:13.093Z,57.30
2022-09-10T04:45:45.415Z,57.20
2022-09-10T04:48:15.171Z,57.20
2022-09-10T04:51:05.565Z,57.20
2022-09-10T04:53:34.604Z,57.30
2022-09-10T04:56:04.657Z,57.10
2022-09-10T04:58:38.629Z,57.10
2022-09-10T05:01:11.918Z,56.80
2022-09-10T05:03:41.745Z,56.00
2022-09-10T05:06:11.657Z,55.40
2022-09-10T05:08:41.447Z,54.70
2022-09-10T05:11:11.549Z,53.80
2022-09-10T05:13:42.226Z,53.60
2022-09-10T05:16:14.612Z,54.30
2022-09-10T05:18:44.506Z,53.60
2022-09-10T05:21:14.522Z,54.00
2022-09-10T05:23:44.424Z,53.20
2022-09-10T05:26:14.365Z,53.50
2022-09-10T05:28:44.074Z,53.30
2022-09-10T05:31:17.298Z,53.40
2022-09-10T05:33:47.066Z,53.40
2022-09-10T05:36:17.351Z,53.40
2022-09-10T05:38:47.826Z,53.10
2022-09-10T05:41:17.579Z,53.40
2022-09-10T05:43:47.305Z,53.50
2022-09-10T05:46:19.980Z,51.30
2022-09-10T05:48:49.797Z,49.50
2022-09-10T05:51:19.991Z,50.00
2022-09-10T05:53:49.961Z,49.50
2022-09-10T05:56:20.624Z,49.40
2022-09-10T05:58:50.761Z,49.00
2022-09-10T06:01:23.179Z,48.70
2022-09-10T06:03:53.398Z,49.20
2022-09-10T06:06:23.133Z,48.50
2022-09-10T06:08:54.182Z,49.20
2022-09-10T06:11:24.518Z,48.30
2022-09-10T06:13:54.261Z,47.20
2022-09-10T06:16:26.672Z,47.00
2022-09-10T06:18:57.358Z,48.40
2022-09-10T06:21:28.413Z,48.30
2022-09-10T06:23:58.275Z,48.00
2022-09-10T06:26:28.208Z,45.50
2022-09-10T06:28:57.957Z,47.30
2022-09-10T06:31:30.276Z,45.80
2022-09-10T06:34:00.002Z,45.60
2022-09-10T06:36:30.290Z,45.70
2022-09-10T06:39:01.959Z,44.80
2022-09-10T06:41:31.792Z,42.80
2022-09-10T06:44:01.591Z,41.90
2022-09-10T06:49:23.980Z,43.50
2022-09-10T06:51:54.017Z,43.00
2022-09-10T06:54:24.017Z,42.80
2022-09-10T06:56:53.729Z,41.80
2022-09-10T06:59:23.438Z,41.90
2022-09-10T07:01:55.942Z,40.90
2022-09-10T07:04:25.683Z,40.40
2022-09-10T07:06:55.556Z,38.70
2022-09-10T07:09:25.386Z,36.90
2022-09-10T07:11:55.187Z,38.10
2022-09-10T07:14:24.893Z,38.00
2022-09-10T07:16:57.533Z,33.90
2022-09-10T07:19:27.340Z,34.90
2022-09-10T07:21:57.201Z,33.50
2022-09-10T07:24:29.773Z,33.70
2022-09-10T07:27:00.085Z,32.30
2022-09-10T07:29:31.292Z,33.80
2022-09-10T07:32:04.454Z,33.90
2022-09-10T07:34:34.319Z,31.10
2022-09-10T07:37:04.031Z,30.00
2022-09-10T07:39:33.839Z,27.80
2022-09-10T07:42:03.631Z,28.40
2022-09-10T07:44:33.349Z,28.10
2022-09-10T07:47:06.034Z,28.50
2022-09-10T07:49:35.775Z,29.00
2022-09-10T07:52:07.287Z,27.10
2022-09-10T07:54:37.012Z,26.50
2022-09-10T07:57:07.375Z,25.20
2022-09-10T07:59:37.084Z,25.60
2022-09-10T08:02:09.576Z,24.00
2022-09-10T08:04:39.593Z,26.40
2022-09-10T08:07:09.506Z,26.00
2022-09-10T08:09:39.316Z,26.10
2022-09-10T08:12:09.346Z,23.10
2022-09-10T08:14:39.999Z,23.60
2022-09-10T08:17:12.480Z,22.20
2022-09-10T08:19:42.679Z,21.10
2022-09-10T08:22:14.235Z,20.40
2022-09-10T08:24:43.933Z,21.00
2022-09-10T08:27:13.973Z,18.10
2022-09-10T08:29:43.679Z,17.90
2022-09-10T08:32:16.057Z,13.10
2022-09-10T08:34:46.163Z,9.80
2022-09-10T08:37:16.209Z,5.80
2022-09-10T08:39:45.943Z,3.80
2022-09-10T08:42:22.480Z,3.10
2022-09-10T08:44:57.216Z,3.10
2022-09-10T08:47:36.131Z,3.60
2022-09-10T08:50:11.684Z,1.60
2022-09-10T08:52:46.587Z,1.80
2022-09-10T08:55:25.812Z,3.50
2022-09-10T08:58:01.003Z,3.90
2022-09-10T09:00:34.812Z,4.30
2022-09-10T09:03:15.985Z,4.30
2022-09-10T09:05:49.816Z,3.90
2022-09-10T09:08:25.385Z,2.70
2022-09-10T09:11:02.237Z,5.00
2022-09-10T09:13:49.549Z,1.20
2022-09-10T09:16:31.444Z,1.50
2022-09-10T09:19:14.653Z,1.00
2022-09-10T09:21:53.386Z,1.00
2022-09-10T09:24:26.857Z,1.00
2022-09-10T09:27:01.799Z,1.00
2022-09-10T09:29:38.113Z,1.00
2022-09-10T09:32:10.656Z,1.00
2022-09-10T09:34:49.794Z,1.00
2022-09-10T09:37:21.476Z,1.00
2022-09-10T09:40:04.821Z,1.00
2022-09-10T09:42:47.310Z,1.00
2022-09-10T09:45:28.318Z,1.00
2022-09-10T09:47:58.384Z,1.00
2022-09-10T09:50:33.594Z,1.00
2022-09-10T09:53:03.357Z,1.00
2022-09-10T09:55:38.818Z,1.00
2022-09-10T09:58:33.506Z,1.00
2022-09-10T10:01:15.719Z,1.00
2022-09-10T10:03:52.614Z,1.00
2022-09-10T10:06:27.157Z,1.00
2022-09-10T10:09:03.554Z,1.00
2022-09-10T10:11:52.144Z,1.00
2022-09-10T10:14:42.358Z,1.80
2022-09-10T10:17:33.896Z,29.60
2022-09-10T10:20:09.911Z,27.00
2022-09-10T10:22:43.585Z,28.90
2022-09-10T10:25:40.419Z,29.70
2022-09-10T10:28:19.110Z,27.60
2022-09-10T10:30:54.825Z,29.70
2022-09-10T10:33:30.801Z,32.10
2022-09-10T10:36:09.179Z,26.40
2022-09-10T10:38:45.295Z,22.70
2022-09-10T10:41:40.552Z,23.20
2022-09-10T10:44:24.187Z,30.00
2022-09-10T10:47:07.761Z,27.00
2022-09-10T10:49:50.919Z,24.00
2022-09-10T10:52:29.817Z,19.00
2022-09-10T10:55:15.134Z,20.60
2022-09-10T10:58:10.258Z,16.00
2022-09-10T11:00:45.134Z,16.60
2022-09-10T11:03:21.292Z,10.70
2022-09-10T11:05:56.020Z,12.80
2022-09-10T11:08:33.277Z,2.90
2022-09-10T11:11:10.773Z,2.40
2022-09-10T11:13:44.249Z,2.60
2022-09-10T11:16:20.249Z,1.00
2022-09-10T11:18:54.696Z,1.00
2022-09-10T11:21:30.257Z,1.00
2022-09-10T11:24:04.417Z,1.00
2022-09-10T11:26:41.495Z,1.00
2022-09-10T11:29:26.022Z,1.00
2022-09-10T11:32:00.747Z,1.00
2022-09-10T11:34:37.935Z,1.00
2022-09-10T11:37:16.719Z,1.00
2022-09-10T11:39:50.873Z,1.00
2022-09-10T11:42:27.714Z,1.00
2022-09-10T11:45:03.614Z,1.00
2022-09-10T11:47:37.768Z,1.00
2022-09-10T11:50:17.324Z,1.00
2022-09-10T11:52:47.084Z,1.00
2022-09-10T11:55:18.950Z,1.00
2022-09-10T11:58:04.242Z,1.00
2022-09-10T12:00:40.116Z,1.00
2022-09-10T12:03:36.198Z,1.00
2022-09-10T12:06:09.694Z,1.00
2022-09-10T12:08:52.185Z,1.00
2022-09-10T12:11:29.504Z,1.00
2022-09-10T12:14:02.995Z,1.00
2022-09-10T12:16:37.963Z,1.00
2022-09-10T12:19:12.594Z,1.00
2022-09-10T12:21:47.106Z,1.00
2022-09-10T12:24:28.766Z,1.00
2022-09-10T12:26:59.174Z,1.00
2022-09-10T12:29:34.115Z,1.00
2022-09-10T12:32:34.114Z,1.00
2022-09-10T12:35:49.058Z,1.00
2022-09-10T12:38:49.338Z,1.00
2022-09-10T12:42:04.175Z,1.00
2022-09-10T12:44:49.500Z,1.00
2022-09-10T12:47:52.408Z,1.00
2022-09-10T12:50:46.254Z,1.00
2022-09-10T12:53:53.202Z,1.00
2022-09-10T12:56:42.507Z,1.00
2022-09-10T12:59:34.354Z,1.00
2022-09-10T13:02:21.780Z,1.00
2022-09-10T13:04:58.816Z,1.00
2022-09-10T13:07:36.840Z,1.00
2022-09-10T13:10:21.148Z,1.00
2022-09-10T13:12:55.279Z,1.00
2022-09-10T13:15:29.919Z,1.00
2022-09-10T13:18:30.255Z,1.00
2022-09-10T13:21:00.754Z,1.00
2022-09-10T13:23:50.260Z,1.00
2022-09-10T13:26:52.894Z,1.00
2022-09-10T13:29:36.902Z,1.00
2022-09-10T13:32:13.975Z,1.00
2022-09-10T13:35:17.184Z,1.00
2022-09-10T13:38:18.029Z,1.00
2022-09-10T13:41:09.089Z,1.00
2022-09-10T13:44:02.016Z,1.00
2022-09-10T13:46:38.351Z,1.00
2022-09-10T13:49:13.532Z,1.00
2022-09-10T13:51:52.025Z,1.00
2022-09-10T13:54:33.288Z,1.00
2022-09-10T13:57:09.309Z,1.00
2022-09-10T13:59:41.170Z,1.00
2022-09-10T14:02:11.156Z,1.00
2022-09-10T14:04:45.069Z,1.00
2022-09-10T14:07:21.529Z,1.00
2022-09-10T14:09:56.733Z,1.00
2022-09-10T14:12:29.929Z,1.00
2022-09-10T14:15:03.098Z,1.00
2022-09-10T14:17:38.005Z,1.00
2022-09-10T14:20:18.938Z,1.00
2022-09-10T14:22:53.010Z,1.00
2022-09-10T14:25:32.340Z,1.00
2022-09-10T14:28:21.988Z,1.00
2022-09-10T14:30:54.369Z,1.00
2022-09-10T14:33:27.960Z,1.00
2022-09-10T14:35:58.740Z,1.00
2022-09-10T14:38:34.145Z,1.00
2022-09-10T14:41:10.977Z,1.00
2022-09-10T14:43:42.527Z,1.30
2022-09-10T14:46:15.022Z,9.70
2022-09-10T14:49:04.574Z,12.70
2022-09-10T14:51:34.318Z,13.40
2022-09-10T14:54:06.891Z,11.70
2022-09-10T14:56:40.606Z,10.90
2022-09-10T14:59:17.440Z,10.20
2022-09-10T15:01:49.225Z,9.90
2022-09-10T15:04:21.381Z,9.20
2022-09-10T15:06:51.297Z,7.90
2022-09-10T15:09:24.086Z,8.90
2022-09-10T15:11:58.383Z,9.20
2022-09-10T15:14:28.020Z,8.60
2022-09-10T15:16:57.774Z,7.00
2022-09-10T15:19:27.943Z,9.50
2022-09-10T15:21:57.826Z,9.50
2022-09-10T15:24:39.017Z,12.20
2022-09-10T15:27:21.752Z,17.80
2022-09-10T15:29:51.515Z,23.50
2022-09-10T15:32:21.261Z,23.20
2022-09-10T15:34:51.247Z,30.50
2022-09-10T15:37:22.365Z,37.50
2022-09-10T15:39:54.773Z,37.70
2022-09-10T15:42:24.597Z,40.60
2022-09-10T15:44:54.302Z,42.20
2022-09-10T15:47:24.149Z,46.30
2022-09-10T15:49:54.283Z,45.80
2022-09-10T15:52:24.077Z,46.60
2022-09-10T15:54:57.333Z,42.40
2022-09-10T15:57:27.192Z,45.20
2022-09-10T15:59:57.041Z,46.20
2022-09-10T16:02:26.810Z,44.80
2022-09-10T16:04:56.617Z,44.00
2022-09-10T16:07:26.576Z,42.90
2022-09-10T16:09:59.756Z,40.00
2022-09-10T16:12:29.538Z,38.70
2022-09-10T16:15:00.804Z,39.20
2022-09-10T16:17:31.791Z,39.70
2022-09-10T16:20:02.253Z,29.30
2022-09-10T16:22:33.856Z,29.20
2022-09-10T16:25:08.583Z,26.90
2022-09-10T16:27:42.580Z,27.50
2022-09-10T16:30:14.497Z,26.40
2022-09-10T16:32:44.235Z,28.70
2022-09-10T16:35:14.159Z,27.80
2022-09-10T16:37:44.089Z,26.90
2022-09-10T16:40:19.236Z,26.90
2022-09-10T16:42:49.475Z,27.30
2022-09-10T16:45:19.243Z,25.90
2022-09-10T16:47:49.003Z,26.00
2022-09-10T16:50:20.261Z,26.80
2022-09-10T16:52:51.461Z,27.90
2022-09-10T16:55:27.148Z,27.30
2022-09-10T16:57:57.539Z,25.30
2022-09-10T17:00:27.293Z,25.20
2022-09-10T17:02:58.458Z,25.40
2022-09-10T17:05:28.913Z,23.20
2022-09-10T17:07:59.990Z,26.60
2022-09-10T17:10:32.341Z,27.80
2022-09-10T17:13:02.375Z,26.50
2022-09-10T17:15:32.152Z,28.60
2022-09-10T17:18:02.249Z,29.90
2022-09-10T17:20:31.966Z,29.80
2022-09-10T17:23:02.503Z,29.10
2022-09-10T17:25:35.075Z,30.30
2022-09-10T17:28:05.457Z,31.80
2022-09-10T17:30:35.261Z,31.70
2022-09-10T17:33:06.062Z,33.00
2022-09-10T17:35:35.928Z,34.80
2022-09-10T17:38:06.225Z,35.50
2022-09-10T17:40:38.638Z,35.80
2022-09-10T17:43:08.344Z,35.40
2022-09-10T17:45:39.615Z,34.20
2022-09-10T17:48:11.846Z,35.00
2022-09-10T17:50:48.669Z,34.80
2022-09-10T17:53:18.997Z,33.20
2022-09-10T17:55:51.349Z,32.60
2022-09-10T17:58:22.384Z,31.30
2022-09-10T18:00:52.515Z,31.60
2022-09-10T18:03:22.244Z,30.90
2022-09-10T18:05:51.983Z,30.00
2022-09-10T18:08:21.943Z,29.80
2022-09-10T18:11:05.731Z,29.70
2022-09-10T18:13:35.921Z,29.80
2022-09-10T18:16:10.459Z,29.80
2022-09-10T18:18:40.534Z,27.10
2022-09-10T18:21:15.291Z,29.50
2022-09-10T18:23:46.003Z,27.90
2022-09-10T18:26:20.837Z,28.40
2022-09-10T18:28:57.006Z,27.70
2022-09-10T18:31:28.589Z,27.40
2022-09-10T18:33:59.150Z,26.30
2022-09-10T18:36:30.566Z,26.00
2022-09-10T18:39:01.789Z,26.30
2022-09-10T18:41:36.691Z,26.50
2022-09-10T18:44:09.784Z,25.60
2022-09-10T18:46:40.844Z,25.00
2022-09-10T18:49:10.607Z,25.90
2022-09-10T18:51:42.185Z,25.30
2022-09-10T18:54:13.516Z,25.50
2022-09-10T18:56:47.370Z,25.20
2022-09-10T18:59:19.527Z,25.80
2022-09-10T19:01:50.415Z,26.20
2022-09-10T19:04:23.722Z,26.20
2022-09-10T19:06:54.361Z,24.90
2022-09-10T19:09:26.258Z,26.70
2022-09-10T19:12:00.556Z,27.40
2022-09-10T19:14:32.219Z,26.10
2022-09-10T19:17:03.653Z,26.50
2022-09-10T19:19:35.315Z,26.20
2022-09-10T19:22:07.130Z,27.20
2022-09-10T19:24:54.412Z,27.20
2022-09-10T19:27:27.383Z,28.50
2022-09-10T19:29:57.141Z,27.70
2022-09-10T19:32:26.970Z,28.60
2022-09-10T19:34:57.616Z,29.10
2022-09-10T19:37:28.546Z,29.50
2022-09-10T19:39:59.328Z,29.20
2022-09-10T19:42:31.702Z,28.80
2022-09-10T19:45:05.902Z,28.30
2022-09-10T19:47:40.243Z,26.00
2022-09-10T19:50:10.523Z,27.00
2022-09-10T19:52:40.913Z,27.00
2022-09-10T19:55:12.880Z,27.70
2022-09-10T19:57:45.355Z,26.80
2022-09-10T20:00:36.076Z,27.40
2022-09-10T20:03:07.667Z,27.00
2022-09-10T20:05:37.584Z,26.30
2022-09-10T20:08:09.247Z,25.80
2022-09-10T20:10:39.074Z,25.00
2022-09-10T20:13:12.009Z,24.70
2022-09-10T20:15:45.430Z,24.00
2022-09-10T20:18:15.457Z,24.10
2022-09-10T20:20:45.474Z,22.50
2022-09-10T20:23:15.509Z,24.20
2022-09-10T20:25:45.252Z,24.10
2022-09-10T20:28:17.649Z,23.30
2022-09-10T20:30:48.085Z,23.70
2022-09-10T20:33:19.888Z,22.40
2022-09-10T20:35:49.645Z,23.00
2022-09-10T20:38:21.264Z,23.20
2022-09-10T20:40:50.964Z,22.60
2022-09-10T20:43:23.477Z,22.40
2022-09-10T20:45:53.197Z,22.40
2022-09-10T20:48:22.961Z,22.60
2022-09-10T20:50:56.173Z,21.90
2022-09-10T20:53:26.299Z,22.60
2022-09-10T20:56:03.341Z,22.30
2022-09-10T20:58:37.306Z,22.20
2022-09-10T21:01:11.979Z,22.20
2022-09-10T21:03:42.654Z,22.00
2022-09-10T21:06:13.284Z,21.30
2022-09-10T21:08:45.017Z,20.70
2022-09-10T21:11:17.150Z,21.20
2022-09-10T21:13:52.879Z,20.80
2022-09-10T21:16:25.009Z,20.30
2022-09-10T21:18:56.531Z,20.80
2022-09-10T21:21:28.217Z,21.00
2022-09-10T21:23:59.539Z,20.10
2022-09-10T21:26:32.027Z,20.80
2022-09-10T21:29:07.189Z,20.70
2022-09-10T21:31:37.835Z,20.90
2022-09-10T21:34:08.057Z,20.20
2022-09-10T21:36:43.736Z,21.40
2022-09-10T21:39:17.531Z,22.40
2022-09-10T21:41:49.038Z,22.50
2022-09-10T21:44:23.121Z,21.90
2022-09-10T21:46:53.595Z,21.30
2022-09-10T21:49:23.409Z,22.10
2022-09-10T21:51:53.419Z,23.00
2022-09-10T21:54:24.423Z,23.30
2022-09-10T21:56:55.896Z,23.10
2022-09-10T21:59:28.228Z,22.80
2022-09-10T22:01:58.037Z,23.00
2022-09-10T22:04:27.914Z,23.00
2022-09-10T22:06:57.918Z,22.70
2022-09-10T22:09:27.749Z,22.70
2022-09-10T22:11:59.170Z,25.00
2022-09-10T22:14:31.593Z,25.80
2022-09-10T22:17:01.335Z,26.20
2022-09-10T22:19:31.084Z,26.60
2022-09-10T22:22:00.827Z,28.50
2022-09-10T22:24:30.667Z,30.00
2022-09-10T22:27:00.423Z,30.20
2022-09-10T22:29:32.742Z,31.60
2022-09-10T22:32:02.461Z,33.10
2022-09-10T22:34:32.185Z,33.30
2022-09-10T22:37:03.155Z,34.10
2022-09-10T22:39:36.820Z,37.50
2022-09-10T22:42:07.537Z,38.30
2022-09-10T22:44:39.841Z,41.20
2022-09-10T22:47:09.575Z,43.20
2022-09-10T22:49:39.869Z,45.50
2022-09-10T22:52:09.594Z,46.30
2022-09-10T22:54:39.309Z,48.10
2022-09-10T22:57:09.032Z,48.50
2022-09-10T22:59:41.482Z,46.80
2022-09-10T23:02:11.601Z,47.70
2022-09-10T23:04:42.667Z,48.10
2022-09-10T23:07:12.758Z,48.40
2022-09-10T23:09:42.487Z,48.70
2022-09-10T23:12:12.215Z,47.90
2022-09-10T23:14:44.773Z,48.90
2022-09-10T23:17:15.545Z,48.70
2022-09-10T23:19:47.335Z,49.30
2022-09-10T23:22:17.067Z,48.90
2022-09-10T23:24:46.846Z,48.00
2022-09-10T23:27:16.607Z,47.90
2022-09-10T23:29:48.957Z,47.80
2022-09-10T23:32:19.324Z,47.90
2022-09-10T23:34:50.487Z,48.20
2022-09-10T23:37:20.317Z,47.00
2022-09-10T23:39:51.748Z,46.10
2022-09-10T23:42:21.572Z,46.90
2022-09-10T23:44:55.765Z,45.50
2022-09-10T23:47:26.057Z,45.60
2022-09-10T23:49:57.045Z,45.60
2022-09-10T23:52:27.181Z,45.60
2022-09-10T23:54:57.187Z,45.10
2022-09-10T23:57:27.004Z,45.50
